sensor_id;sensor_type;location;lat;lon;timestamp;P1;durP1;ratioP1;P2;durP2;ratioP2
5475;SDS011;2760;50.000;9.194;2023-03-20T00:00:20;15.20;;;7.90;;
5475;SDS011;2760;50.000;9.194;2023-03-20T00:02:54;10.53;;;7.00;;
5475;SDS011;2760;50.000;9.194;2023-03-20T00:05:22;9.60;;;7.40;;
5475;SDS011;2760;50.000;9.194;2023-03-20T00:07:50;8.57;;;6.57;;
5475;SDS011;2760;50.000;9.194;2023-03-20T00:10:18;8.97;;;7.03;;
5475;SDS011;2760;50.000;9.194;2023-03-20T00:12:46;10.97;;;6.37;;
5475;SDS011;2760;50.000;9.194;2023-03-20T00:15:21;7.37;;;6.17;;
5475;SDS011;2760;50.000;9.194;2023-03-20T00:17:51;8.70;;;7.60;;
5475;SDS011;2760;50.000;9.194;2023-03-20T00:20:20;10.17;;;6.20;;
5475;SDS011;2760;50.000;9.194;2023-03-20T00:22:47;10.17;;;6.93;;
5475;SDS011;2760;50.000;9.194;2023-03-20T00:25:16;9.03;;;7.40;;
5475;SDS011;2760;50.000;9.194;2023-03-20T00:27:44;9.73;;;7.50;;
5475;SDS011;2760;50.000;9.194;2023-03-20T00:30:15;15.73;;;8.27;;
5475;SDS011;2760;50.000;9.194;2023-03-20T00:32:45;9.77;;;7.77;;
5475;SDS011;2760;50.000;9.194;2023-03-20T00:35:22;9.27;;;7.67;;
5475;SDS011;2760;50.000;9.194;2023-03-20T00:37:52;11.23;;;7.47;;
5475;SDS011;2760;50.000;9.194;2023-03-20T00:40:19;10.50;;;7.50;;
5475;SDS011;2760;50.000;9.194;2023-03-20T00:42:48;13.30;;;7.83;;
5475;SDS011;2760;50.000;9.194;2023-03-20T00:45:21;10.00;;;7.23;;
5475;SDS011;2760;50.000;9.194;2023-03-20T00:47:48;11.27;;;6.93;;
5475;SDS011;2760;50.000;9.194;2023-03-20T00:50:18;12.53;;;7.70;;
5475;SDS011;2760;50.000;9.194;2023-03-20T00:52:49;8.37;;;7.10;;
5475;SDS011;2760;50.000;9.194;2023-03-20T00:55:16;9.40;;;6.97;;
5475;SDS011;2760;50.000;9.194;2023-03-20T00:57:45;8.20;;;7.40;;
5475;SDS011;2760;50.000;9.194;2023-03-20T01:00:19;11.87;;;8.40;;
5475;SDS011;2760;50.000;9.194;2023-03-20T01:02:52;11.60;;;7.23;;
5475;SDS011;2760;50.000;9.194;2023-03-20T01:05:23;9.47;;;7.90;;
5475;SDS011;2760;50.000;9.194;2023-03-20T01:07:53;8.90;;;7.30;;
5475;SDS011;2760;50.000;9.194;2023-03-20T01:10:21;10.53;;;7.80;;
5475;SDS011;2760;50.000;9.194;2023-03-20T01:12:51;11.73;;;8.13;;
5475;SDS011;2760;50.000;9.194;2023-03-20T01:15:20;8.33;;;7.37;;
5475;SDS011;2760;50.000;9.194;2023-03-20T01:17:48;11.77;;;8.30;;
5475;SDS011;2760;50.000;9.194;2023-03-20T01:20:18;11.83;;;8.10;;
5475;SDS011;2760;50.000;9.194;2023-03-20T01:22:47;8.33;;;7.20;;
5475;SDS011;2760;50.000;9.194;2023-03-20T01:25:17;10.23;;;8.03;;
5475;SDS011;2760;50.000;9.194;2023-03-20T01:27:45;10.47;;;7.70;;
5475;SDS011;2760;50.000;9.194;2023-03-20T01:30:16;10.07;;;7.47;;
5475;SDS011;2760;50.000;9.194;2023-03-20T01:32:46;8.10;;;7.27;;
5475;SDS011;2760;50.000;9.194;2023-03-20T01:35:14;12.60;;;8.03;;
5475;SDS011;2760;50.000;9.194;2023-03-20T01:37:43;9.77;;;7.67;;
5475;SDS011;2760;50.000;9.194;2023-03-20T01:42:59;9.10;;;7.40;;
5475;SDS011;2760;50.000;9.194;2023-03-20T01:45:29;12.43;;;8.10;;
5475;SDS011;2760;50.000;9.194;2023-03-20T01:48:01;13.40;;;8.30;;
5475;SDS011;2760;50.000;9.194;2023-03-20T01:50:38;10.93;;;8.10;;
5475;SDS011;2760;50.000;9.194;2023-03-20T01:53:12;12.50;;;8.63;;
5475;SDS011;2760;50.000;9.194;2023-03-20T01:55:52;12.43;;;7.20;;
5475;SDS011;2760;50.000;9.194;2023-03-20T01:58:24;13.63;;;7.60;;
5475;SDS011;2760;50.000;9.194;2023-03-20T02:01:00;11.10;;;7.77;;
5475;SDS011;2760;50.000;9.194;2023-03-20T02:03:27;8.27;;;7.37;;
5475;SDS011;2760;50.000;9.194;2023-03-20T02:06:14;9.77;;;6.90;;
5475;SDS011;2760;50.000;9.194;2023-03-20T02:08:58;8.57;;;6.83;;
5475;SDS011;2760;50.000;9.194;2023-03-20T02:11:30;11.97;;;7.70;;
5475;SDS011;2760;50.000;9.194;2023-03-20T02:13:58;10.43;;;7.67;;
5475;SDS011;2760;50.000;9.194;2023-03-20T02:16:33;9.53;;;7.40;;
5475;SDS011;2760;50.000;9.194;2023-03-20T02:19:29;9.50;;;6.93;;
5475;SDS011;2760;50.000;9.194;2023-03-20T02:22:15;11.80;;;7.90;;
5475;SDS011;2760;50.000;9.194;2023-03-20T02:25:08;9.67;;;6.67;;
5475;SDS011;2760;50.000;9.194;2023-03-20T02:28:18;10.93;;;7.80;;
5475;SDS011;2760;50.000;9.194;2023-03-20T02:31:13;13.20;;;8.00;;
5475;SDS011;2760;50.000;9.194;2023-03-20T02:37:03;14.40;;;7.47;;
5475;SDS011;2760;50.000;9.194;2023-03-20T02:39:56;9.13;;;6.37;;
5475;SDS011;2760;50.000;9.194;2023-03-20T02:42:34;9.10;;;6.33;;
5475;SDS011;2760;50.000;9.194;2023-03-20T02:45:12;12.17;;;6.90;;
5475;SDS011;2760;50.000;9.194;2023-03-20T02:47:47;10.43;;;6.90;;
5475;SDS011;2760;50.000;9.194;2023-03-20T02:50:21;8.10;;;6.77;;
5475;SDS011;2760;50.000;9.194;2023-03-20T02:53:02;9.37;;;6.60;;
5475;SDS011;2760;50.000;9.194;2023-03-20T02:55:44;9.47;;;6.77;;
5475;SDS011;2760;50.000;9.194;2023-03-20T02:58:13;8.47;;;6.37;;
5475;SDS011;2760;50.000;9.194;2023-03-20T03:00:47;10.00;;;6.40;;
5475;SDS011;2760;50.000;9.194;2023-03-20T03:03:21;6.37;;;5.50;;
5475;SDS011;2760;50.000;9.194;2023-03-20T03:05:54;6.67;;;6.07;;
5475;SDS011;2760;50.000;9.194;2023-03-20T03:08:27;6.97;;;6.07;;
5475;SDS011;2760;50.000;9.194;2023-03-20T03:11:00;8.17;;;5.97;;
5475;SDS011;2760;50.000;9.194;2023-03-20T03:13:31;7.77;;;5.80;;
5475;SDS011;2760;50.000;9.194;2023-03-20T03:16:04;13.67;;;6.53;;
5475;SDS011;2760;50.000;9.194;2023-03-20T03:18:35;7.00;;;6.30;;
5475;SDS011;2760;50.000;9.194;2023-03-20T03:21:04;9.50;;;7.17;;
5475;SDS011;2760;50.000;9.194;2023-03-20T03:23:40;7.17;;;6.10;;
5475;SDS011;2760;50.000;9.194;2023-03-20T03:26:12;10.20;;;6.23;;
5475;SDS011;2760;50.000;9.194;2023-03-20T03:28:45;9.47;;;6.70;;
5475;SDS011;2760;50.000;9.194;2023-03-20T03:31:16;7.00;;;6.23;;
5475;SDS011;2760;50.000;9.194;2023-03-20T03:33:44;9.43;;;6.40;;
5475;SDS011;2760;50.000;9.194;2023-03-20T03:36:17;10.80;;;8.60;;
5475;SDS011;2760;50.000;9.194;2023-03-20T03:39:08;7.53;;;6.70;;
5475;SDS011;2760;50.000;9.194;2023-03-20T03:41:42;8.70;;;6.70;;
5475;SDS011;2760;50.000;9.194;2023-03-20T03:44:12;9.60;;;6.70;;
5475;SDS011;2760;50.000;9.194;2023-03-20T03:46:47;10.77;;;7.00;;
5475;SDS011;2760;50.000;9.194;2023-03-20T03:49:19;9.57;;;6.67;;
5475;SDS011;2760;50.000;9.194;2023-03-20T03:51:49;8.90;;;6.13;;
5475;SDS011;2760;50.000;9.194;2023-03-20T03:54:21;9.10;;;6.90;;
5475;SDS011;2760;50.000;9.194;2023-03-20T03:57:12;7.93;;;6.10;;
5475;SDS011;2760;50.000;9.194;2023-03-20T03:59:44;10.40;;;6.50;;
5475;SDS011;2760;50.000;9.194;2023-03-20T04:02:15;9.53;;;6.87;;
5475;SDS011;2760;50.000;9.194;2023-03-20T04:04:44;12.10;;;6.70;;
5475;SDS011;2760;50.000;9.194;2023-03-20T04:07:14;7.47;;;5.87;;
5475;SDS011;2760;50.000;9.194;2023-03-20T04:09:43;8.27;;;6.63;;
5475;SDS011;2760;50.000;9.194;2023-03-20T04:12:17;11.47;;;7.30;;
5475;SDS011;2760;50.000;9.194;2023-03-20T04:14:59;10.03;;;7.50;;
5475;SDS011;2760;50.000;9.194;2023-03-20T04:17:26;11.77;;;7.17;;
5475;SDS011;2760;50.000;9.194;2023-03-20T04:19:54;10.23;;;6.90;;
5475;SDS011;2760;50.000;9.194;2023-03-20T04:22:21;8.70;;;7.77;;
5475;SDS011;2760;50.000;9.194;2023-03-20T04:24:50;10.43;;;7.97;;
5475;SDS011;2760;50.000;9.194;2023-03-20T04:27:18;9.50;;;8.30;;
5475;SDS011;2760;50.000;9.194;2023-03-20T04:29:45;9.67;;;7.70;;
5475;SDS011;2760;50.000;9.194;2023-03-20T04:32:44;9.97;;;6.60;;
5475;SDS011;2760;50.000;9.194;2023-03-20T04:35:21;8.07;;;6.60;;
5475;SDS011;2760;50.000;9.194;2023-03-20T04:37:50;8.20;;;5.83;;
5475;SDS011;2760;50.000;9.194;2023-03-20T04:40:19;10.03;;;6.93;;
5475;SDS011;2760;50.000;9.194;2023-03-20T04:42:48;10.80;;;6.90;;
5475;SDS011;2760;50.000;9.194;2023-03-20T04:45:16;9.27;;;6.37;;
5475;SDS011;2760;50.000;9.194;2023-03-20T04:47:43;8.00;;;6.63;;
5475;SDS011;2760;50.000;9.194;2023-03-20T04:50:11;6.67;;;5.40;;
5475;SDS011;2760;50.000;9.194;2023-03-20T04:52:38;12.37;;;6.57;;
5475;SDS011;2760;50.000;9.194;2023-03-20T04:55:06;13.73;;;6.70;;
5475;SDS011;2760;50.000;9.194;2023-03-20T04:57:35;7.43;;;6.30;;
5475;SDS011;2760;50.000;9.194;2023-03-20T05:00:03;19.83;;;10.03;;
5475;SDS011;2760;50.000;9.194;2023-03-20T05:02:31;14.73;;;9.73;;
5475;SDS011;2760;50.000;9.194;2023-03-20T05:04:58;7.77;;;6.83;;
5475;SDS011;2760;50.000;9.194;2023-03-20T05:07:26;11.83;;;7.20;;
5475;SDS011;2760;50.000;9.194;2023-03-20T05:09:59;11.10;;;7.37;;
5475;SDS011;2760;50.000;9.194;2023-03-20T05:12:28;10.53;;;6.80;;
5475;SDS011;2760;50.000;9.194;2023-03-20T05:15:24;12.40;;;7.43;;
5475;SDS011;2760;50.000;9.194;2023-03-20T05:18:14;9.63;;;7.37;;
5475;SDS011;2760;50.000;9.194;2023-03-20T05:20:51;11.67;;;8.20;;
5475;SDS011;2760;50.000;9.194;2023-03-20T05:23:43;12.67;;;8.83;;
5475;SDS011;2760;50.000;9.194;2023-03-20T05:26:16;14.40;;;9.17;;
5475;SDS011;2760;50.000;9.194;2023-03-20T05:29:16;11.97;;;9.77;;
5475;SDS011;2760;50.000;9.194;2023-03-20T05:32:03;13.63;;;10.63;;
5475;SDS011;2760;50.000;9.194;2023-03-20T05:35:02;15.30;;;10.47;;
5475;SDS011;2760;50.000;9.194;2023-03-20T05:37:42;17.20;;;9.97;;
5475;SDS011;2760;50.000;9.194;2023-03-20T05:40:28;13.63;;;10.13;;
5475;SDS011;2760;50.000;9.194;2023-03-20T05:43:16;13.63;;;9.33;;
5475;SDS011;2760;50.000;9.194;2023-03-20T05:46:00;11.37;;;9.43;;
5475;SDS011;2760;50.000;9.194;2023-03-20T05:48:37;13.50;;;9.20;;
5475;SDS011;2760;50.000;9.194;2023-03-20T05:51:30;13.90;;;9.67;;
5475;SDS011;2760;50.000;9.194;2023-03-20T05:54:04;20.53;;;11.17;;
5475;SDS011;2760;50.000;9.194;2023-03-20T05:57:03;15.63;;;10.17;;
5475;SDS011;2760;50.000;9.194;2023-03-20T05:59:50;14.53;;;10.53;;
5475;SDS011;2760;50.000;9.194;2023-03-20T06:02:36;14.37;;;10.77;;
5475;SDS011;2760;50.000;9.194;2023-03-20T06:05:19;15.13;;;12.03;;
5475;SDS011;2760;50.000;9.194;2023-03-20T06:07:50;17.00;;;10.73;;
5475;SDS011;2760;50.000;9.194;2023-03-20T06:10:18;14.27;;;10.20;;
5475;SDS011;2760;50.000;9.194;2023-03-20T06:12:46;13.70;;;10.60;;
5475;SDS011;2760;50.000;9.194;2023-03-20T06:15:15;15.53;;;9.70;;
5475;SDS011;2760;50.000;9.194;2023-03-20T06:17:49;15.13;;;11.40;;
5475;SDS011;2760;50.000;9.194;2023-03-20T06:20:16;16.90;;;11.20;;
5475;SDS011;2760;50.000;9.194;2023-03-20T06:22:45;16.47;;;10.20;;
5475;SDS011;2760;50.000;9.194;2023-03-20T06:25:14;15.40;;;10.77;;
5475;SDS011;2760;50.000;9.194;2023-03-20T06:27:42;14.07;;;10.10;;
5475;SDS011;2760;50.000;9.194;2023-03-20T06:30:12;15.80;;;10.70;;
5475;SDS011;2760;50.000;9.194;2023-03-20T06:32:41;13.87;;;10.03;;
5475;SDS011;2760;50.000;9.194;2023-03-20T06:35:10;15.50;;;10.57;;
5475;SDS011;2760;50.000;9.194;2023-03-20T06:37:42;15.53;;;9.80;;
5475;SDS011;2760;50.000;9.194;2023-03-20T06:40:17;13.90;;;8.63;;
5475;SDS011;2760;50.000;9.194;2023-03-20T06:42:45;20.27;;;8.90;;
5475;SDS011;2760;50.000;9.194;2023-03-20T06:45:16;16.57;;;9.07;;
5475;SDS011;2760;50.000;9.194;2023-03-20T06:47:53;11.90;;;7.83;;
5475;SDS011;2760;50.000;9.194;2023-03-20T06:50:20;11.67;;;8.60;;
5475;SDS011;2760;50.000;9.194;2023-03-20T06:52:49;17.73;;;9.97;;
5475;SDS011;2760;50.000;9.194;2023-03-20T06:55:41;12.50;;;9.80;;
5475;SDS011;2760;50.000;9.194;2023-03-20T06:58:09;13.70;;;9.80;;
5475;SDS011;2760;50.000;9.194;2023-03-20T07:00:37;14.57;;;10.83;;
5475;SDS011;2760;50.000;9.194;2023-03-20T07:03:06;17.03;;;9.00;;
5475;SDS011;2760;50.000;9.194;2023-03-20T07:05:35;11.57;;;8.87;;
5475;SDS011;2760;50.000;9.194;2023-03-20T07:08:07;17.40;;;10.17;;
5475;SDS011;2760;50.000;9.194;2023-03-20T07:10:35;9.87;;;8.20;;
5475;SDS011;2760;50.000;9.194;2023-03-20T07:13:04;11.60;;;8.27;;
5475;SDS011;2760;50.000;9.194;2023-03-20T07:15:33;12.93;;;9.13;;
5475;SDS011;2760;50.000;9.194;2023-03-20T07:18:01;14.90;;;9.17;;
5475;SDS011;2760;50.000;9.194;2023-03-20T07:20:28;14.33;;;9.40;;
5475;SDS011;2760;50.000;9.194;2023-03-20T07:22:55;14.67;;;9.70;;
5475;SDS011;2760;50.000;9.194;2023-03-20T07:25:26;13.47;;;8.73;;
5475;SDS011;2760;50.000;9.194;2023-03-20T07:27:55;16.20;;;10.40;;
5475;SDS011;2760;50.000;9.194;2023-03-20T07:30:24;14.60;;;10.40;;
5475;SDS011;2760;50.000;9.194;2023-03-20T07:32:54;15.03;;;10.83;;
5475;SDS011;2760;50.000;9.194;2023-03-20T07:35:25;19.37;;;12.87;;
5475;SDS011;2760;50.000;9.194;2023-03-20T07:37:52;21.10;;;13.70;;
5475;SDS011;2760;50.000;9.194;2023-03-20T07:40:20;17.43;;;12.83;;
5475;SDS011;2760;50.000;9.194;2023-03-20T07:42:54;15.47;;;12.13;;
5475;SDS011;2760;50.000;9.194;2023-03-20T07:45:57;18.80;;;12.40;;
5475;SDS011;2760;50.000;9.194;2023-03-20T07:48:26;23.87;;;14.63;;
5475;SDS011;2760;50.000;9.194;2023-03-20T07:50:54;16.43;;;11.73;;
5475;SDS011;2760;50.000;9.194;2023-03-20T07:53:21;22.30;;;13.33;;
5475;SDS011;2760;50.000;9.194;2023-03-20T07:55:49;21.43;;;13.60;;
5475;SDS011;2760;50.000;9.194;2023-03-20T07:58:17;24.00;;;13.27;;
5475;SDS011;2760;50.000;9.194;2023-03-20T08:00:45;24.00;;;14.67;;
5475;SDS011;2760;50.000;9.194;2023-03-20T08:03:12;21.47;;;13.33;;
5475;SDS011;2760;50.000;9.194;2023-03-20T08:05:38;21.80;;;14.73;;
5475;SDS011;2760;50.000;9.194;2023-03-20T08:08:06;21.60;;;14.73;;
5475;SDS011;2760;50.000;9.194;2023-03-20T08:10:32;21.40;;;14.23;;
5475;SDS011;2760;50.000;9.194;2023-03-20T08:13:00;23.03;;;15.20;;
5475;SDS011;2760;50.000;9.194;2023-03-20T08:15:28;26.67;;;14.10;;
5475;SDS011;2760;50.000;9.194;2023-03-20T08:17:55;22.67;;;14.87;;
5475;SDS011;2760;50.000;9.194;2023-03-20T08:20:23;21.07;;;14.27;;
5475;SDS011;2760;50.000;9.194;2023-03-20T08:22:50;26.17;;;15.27;;
5475;SDS011;2760;50.000;9.194;2023-03-20T08:25:17;29.03;;;16.20;;
5475;SDS011;2760;50.000;9.194;2023-03-20T08:27:44;29.93;;;15.97;;
5475;SDS011;2760;50.000;9.194;2023-03-20T08:30:11;29.63;;;17.83;;
5475;SDS011;2760;50.000;9.194;2023-03-20T08:32:40;26.27;;;17.20;;
5475;SDS011;2760;50.000;9.194;2023-03-20T08:35:07;25.87;;;16.37;;
5475;SDS011;2760;50.000;9.194;2023-03-20T08:37:35;32.53;;;19.37;;
5475;SDS011;2760;50.000;9.194;2023-03-20T08:40:03;29.77;;;17.47;;
5475;SDS011;2760;50.000;9.194;2023-03-20T08:42:31;29.97;;;16.87;;
5475;SDS011;2760;50.000;9.194;2023-03-20T08:44:58;27.10;;;17.40;;
5475;SDS011;2760;50.000;9.194;2023-03-20T08:47:25;32.97;;;18.77;;
5475;SDS011;2760;50.000;9.194;2023-03-20T08:49:53;29.77;;;18.70;;
5475;SDS011;2760;50.000;9.194;2023-03-20T08:52:20;28.13;;;17.80;;
5475;SDS011;2760;50.000;9.194;2023-03-20T08:54:47;32.97;;;19.63;;
5475;SDS011;2760;50.000;9.194;2023-03-20T08:57:16;53.30;;;22.33;;
5475;SDS011;2760;50.000;9.194;2023-03-20T08:59:43;38.77;;;21.67;;
5475;SDS011;2760;50.000;9.194;2023-03-20T09:02:10;42.20;;;23.70;;
5475;SDS011;2760;50.000;9.194;2023-03-20T09:04:38;50.70;;;23.40;;
5475;SDS011;2760;50.000;9.194;2023-03-20T09:07:06;39.40;;;21.90;;
5475;SDS011;2760;50.000;9.194;2023-03-20T09:09:34;42.57;;;22.40;;
5475;SDS011;2760;50.000;9.194;2023-03-20T09:12:01;46.60;;;23.27;;
5475;SDS011;2760;50.000;9.194;2023-03-20T09:14:28;42.40;;;24.03;;
5475;SDS011;2760;50.000;9.194;2023-03-20T09:16:55;48.67;;;23.87;;
5475;SDS011;2760;50.000;9.194;2023-03-20T09:19:22;43.70;;;23.77;;
5475;SDS011;2760;50.000;9.194;2023-03-20T09:21:49;46.87;;;25.47;;
5475;SDS011;2760;50.000;9.194;2023-03-20T09:24:19;37.10;;;22.07;;
5475;SDS011;2760;50.000;9.194;2023-03-20T09:26:46;39.07;;;22.73;;
5475;SDS011;2760;50.000;9.194;2023-03-20T09:29:13;38.87;;;21.63;;
5475;SDS011;2760;50.000;9.194;2023-03-20T09:31:41;48.80;;;22.93;;
5475;SDS011;2760;50.000;9.194;2023-03-20T09:34:08;47.43;;;24.13;;
5475;SDS011;2760;50.000;9.194;2023-03-20T09:36:35;41.80;;;24.43;;
5475;SDS011;2760;50.000;9.194;2023-03-20T09:39:03;43.80;;;23.73;;
5475;SDS011;2760;50.000;9.194;2023-03-20T09:41:31;40.03;;;23.87;;
5475;SDS011;2760;50.000;9.194;2023-03-20T09:44:08;43.33;;;24.20;;
5475;SDS011;2760;50.000;9.194;2023-03-20T09:46:42;48.97;;;25.60;;
5475;SDS011;2760;50.000;9.194;2023-03-20T09:49:22;51.17;;;27.00;;
5475;SDS011;2760;50.000;9.194;2023-03-20T09:52:02;45.20;;;24.77;;
5475;SDS011;2760;50.000;9.194;2023-03-20T09:54:35;40.90;;;23.70;;
5475;SDS011;2760;50.000;9.194;2023-03-20T09:57:08;44.17;;;22.43;;
5475;SDS011;2760;50.000;9.194;2023-03-20T09:59:45;34.20;;;20.20;;
5475;SDS011;2760;50.000;9.194;2023-03-20T10:02:14;45.30;;;20.93;;
5475;SDS011;2760;50.000;9.194;2023-03-20T10:04:48;34.07;;;19.47;;
5475;SDS011;2760;50.000;9.194;2023-03-20T10:07:19;39.23;;;20.07;;
5475;SDS011;2760;50.000;9.194;2023-03-20T10:09:47;34.10;;;18.10;;
5475;SDS011;2760;50.000;9.194;2023-03-20T10:15:13;29.40;;;17.70;;
5475;SDS011;2760;50.000;9.194;2023-03-20T10:17:49;33.57;;;18.57;;
5475;SDS011;2760;50.000;9.194;2023-03-20T10:20:24;34.07;;;18.57;;
5475;SDS011;2760;50.000;9.194;2023-03-20T10:22:57;35.10;;;17.90;;
5475;SDS011;2760;50.000;9.194;2023-03-20T10:25:30;28.47;;;16.10;;
5475;SDS011;2760;50.000;9.194;2023-03-20T10:28:00;32.33;;;16.97;;
5475;SDS011;2760;50.000;9.194;2023-03-20T10:30:45;35.83;;;18.20;;
5475;SDS011;2760;50.000;9.194;2023-03-20T10:33:19;23.30;;;12.90;;
5475;SDS011;2760;50.000;9.194;2023-03-20T10:36:00;20.50;;;11.90;;
5475;SDS011;2760;50.000;9.194;2023-03-20T10:38:40;17.00;;;11.20;;
5475;SDS011;2760;50.000;9.194;2023-03-20T10:41:14;18.73;;;10.20;;
5475;SDS011;2760;50.000;9.194;2023-03-20T10:43:46;16.93;;;10.70;;
5475;SDS011;2760;50.000;9.194;2023-03-20T10:46:17;21.43;;;10.90;;
5475;SDS011;2760;50.000;9.194;2023-03-20T10:48:48;18.33;;;9.90;;
5475;SDS011;2760;50.000;9.194;2023-03-20T10:51:19;17.43;;;10.37;;
5475;SDS011;2760;50.000;9.194;2023-03-20T10:53:48;15.73;;;10.43;;
5475;SDS011;2760;50.000;9.194;2023-03-20T10:56:19;18.33;;;10.60;;
5475;SDS011;2760;50.000;9.194;2023-03-20T10:58:56;21.20;;;10.90;;
5475;SDS011;2760;50.000;9.194;2023-03-20T11:01:28;18.83;;;11.20;;
5475;SDS011;2760;50.000;9.194;2023-03-20T11:03:55;17.50;;;10.90;;
5475;SDS011;2760;50.000;9.194;2023-03-20T11:06:24;18.90;;;11.37;;
5475;SDS011;2760;50.000;9.194;2023-03-20T11:08:54;21.70;;;13.80;;
5475;SDS011;2760;50.000;9.194;2023-03-20T11:11:23;24.20;;;12.43;;
5475;SDS011;2760;50.000;9.194;2023-03-20T11:13:54;23.70;;;13.10;;
5475;SDS011;2760;50.000;9.194;2023-03-20T11:16:24;33.47;;;18.70;;
5475;SDS011;2760;50.000;9.194;2023-03-20T11:18:55;29.20;;;16.60;;
5475;SDS011;2760;50.000;9.194;2023-03-20T11:21:29;35.43;;;19.30;;
5475;SDS011;2760;50.000;9.194;2023-03-20T11:23:57;32.13;;;16.10;;
5475;SDS011;2760;50.000;9.194;2023-03-20T11:26:31;33.13;;;19.07;;
5475;SDS011;2760;50.000;9.194;2023-03-20T11:29:02;32.23;;;18.23;;
5475;SDS011;2760;50.000;9.194;2023-03-20T11:31:32;36.90;;;18.10;;
5475;SDS011;2760;50.000;9.194;2023-03-20T11:34:08;30.83;;;16.60;;
5475;SDS011;2760;50.000;9.194;2023-03-20T11:36:44;32.40;;;16.40;;
5475;SDS011;2760;50.000;9.194;2023-03-20T11:39:21;31.33;;;16.00;;
5475;SDS011;2760;50.000;9.194;2023-03-20T11:41:51;25.07;;;14.80;;
5475;SDS011;2760;50.000;9.194;2023-03-20T11:44:23;26.77;;;14.83;;
5475;SDS011;2760;50.000;9.194;2023-03-20T11:46:55;23.23;;;12.67;;
5475;SDS011;2760;50.000;9.194;2023-03-20T11:49:24;21.87;;;13.40;;
5475;SDS011;2760;50.000;9.194;2023-03-20T11:51:55;26.90;;;14.20;;
5475;SDS011;2760;50.000;9.194;2023-03-20T11:54:25;26.77;;;16.03;;
5475;SDS011;2760;50.000;9.194;2023-03-20T11:56:54;22.93;;;13.13;;
5475;SDS011;2760;50.000;9.194;2023-03-20T11:59:23;22.83;;;14.30;;
5475;SDS011;2760;50.000;9.194;2023-03-20T12:01:55;25.53;;;14.50;;
5475;SDS011;2760;50.000;9.194;2023-03-20T12:04:27;24.63;;;13.73;;
5475;SDS011;2760;50.000;9.194;2023-03-20T12:06:56;23.00;;;12.73;;
5475;SDS011;2760;50.000;9.194;2023-03-20T12:09:31;19.50;;;12.67;;
5475;SDS011;2760;50.000;9.194;2023-03-20T12:12:05;19.90;;;13.30;;
5475;SDS011;2760;50.000;9.194;2023-03-20T12:14:44;25.03;;;12.20;;
5475;SDS011;2760;50.000;9.194;2023-03-20T12:17:30;17.37;;;9.60;;
5475;SDS011;2760;50.000;9.194;2023-03-20T12:20:10;22.10;;;11.83;;
5475;SDS011;2760;50.000;9.194;2023-03-20T12:22:48;21.67;;;14.37;;
5475;SDS011;2760;50.000;9.194;2023-03-20T12:25:20;15.90;;;9.80;;
5475;SDS011;2760;50.000;9.194;2023-03-20T12:27:52;17.90;;;10.60;;
5475;SDS011;2760;50.000;9.194;2023-03-20T12:30:31;14.60;;;9.20;;
5475;SDS011;2760;50.000;9.194;2023-03-20T12:33:10;18.20;;;10.07;;
5475;SDS011;2760;50.000;9.194;2023-03-20T12:35:43;16.73;;;9.73;;
5475;SDS011;2760;50.000;9.194;2023-03-20T12:38:16;12.77;;;8.30;;
5475;SDS011;2760;50.000;9.194;2023-03-20T12:40:53;14.80;;;9.00;;
5475;SDS011;2760;50.000;9.194;2023-03-20T12:43:31;13.73;;;9.00;;
5475;SDS011;2760;50.000;9.194;2023-03-20T12:46:08;18.20;;;9.30;;
5475;SDS011;2760;50.000;9.194;2023-03-20T12:48:46;12.37;;;8.33;;
5475;SDS011;2760;50.000;9.194;2023-03-20T12:51:25;17.67;;;10.27;;
5475;SDS011;2760;50.000;9.194;2023-03-20T12:54:02;15.13;;;8.57;;
5475;SDS011;2760;50.000;9.194;2023-03-20T12:56:45;15.20;;;8.60;;
5475;SDS011;2760;50.000;9.194;2023-03-20T12:59:25;15.13;;;10.57;;
5475;SDS011;2760;50.000;9.194;2023-03-20T13:02:02;17.97;;;11.10;;
5475;SDS011;2760;50.000;9.194;2023-03-20T13:05:00;12.77;;;8.67;;
5475;SDS011;2760;50.000;9.194;2023-03-20T13:07:39;12.73;;;8.53;;
5475;SDS011;2760;50.000;9.194;2023-03-20T13:10:18;14.70;;;9.00;;
5475;SDS011;2760;50.000;9.194;2023-03-20T13:12:54;17.00;;;8.80;;
5475;SDS011;2760;50.000;9.194;2023-03-20T13:15:34;11.53;;;8.40;;
5475;SDS011;2760;50.000;9.194;2023-03-20T13:18:16;13.97;;;8.67;;
5475;SDS011;2760;50.000;9.194;2023-03-20T13:20:48;14.40;;;7.53;;
5475;SDS011;2760;50.000;9.194;2023-03-20T13:23:19;13.13;;;7.50;;
5475;SDS011;2760;50.000;9.194;2023-03-20T13:25:54;11.83;;;7.13;;
5475;SDS011;2760;50.000;9.194;2023-03-20T13:28:30;13.90;;;7.60;;
5475;SDS011;2760;50.000;9.194;2023-03-20T13:31:05;14.73;;;7.03;;
5475;SDS011;2760;50.000;9.194;2023-03-20T13:33:45;9.90;;;6.43;;
5475;SDS011;2760;50.000;9.194;2023-03-20T13:36:21;10.03;;;6.80;;
5475;SDS011;2760;50.000;9.194;2023-03-20T13:38:56;11.07;;;6.80;;
5475;SDS011;2760;50.000;9.194;2023-03-20T13:41:29;12.23;;;7.47;;
5475;SDS011;2760;50.000;9.194;2023-03-20T13:43:59;16.30;;;7.73;;
5475;SDS011;2760;50.000;9.194;2023-03-20T13:46:32;12.10;;;6.80;;
5475;SDS011;2760;50.000;9.194;2023-03-20T13:49:03;12.87;;;7.50;;
5475;SDS011;2760;50.000;9.194;2023-03-20T13:51:40;11.30;;;6.70;;
5475;SDS011;2760;50.000;9.194;2023-03-20T13:54:14;15.00;;;7.23;;
5475;SDS011;2760;50.000;9.194;2023-03-20T13:56:55;18.10;;;7.60;;
5475;SDS011;2760;50.000;9.194;2023-03-20T13:59:39;20.57;;;13.60;;
5475;SDS011;2760;50.000;9.194;2023-03-20T14:02:24;12.40;;;7.27;;
5475;SDS011;2760;50.000;9.194;2023-03-20T14:05:02;16.10;;;8.27;;
5475;SDS011;2760;50.000;9.194;2023-03-20T14:07:32;12.17;;;8.13;;
5475;SDS011;2760;50.000;9.194;2023-03-20T14:13:00;17.03;;;11.30;;
5475;SDS011;2760;50.000;9.194;2023-03-20T14:15:31;17.23;;;10.43;;
5475;SDS011;2760;50.000;9.194;2023-03-20T14:18:02;14.27;;;9.07;;
5475;SDS011;2760;50.000;9.194;2023-03-20T14:20:32;14.80;;;9.27;;
5475;SDS011;2760;50.000;9.194;2023-03-20T14:23:02;23.73;;;13.60;;
5475;SDS011;2760;50.000;9.194;2023-03-20T14:25:32;21.90;;;10.73;;
5475;SDS011;2760;50.000;9.194;2023-03-20T14:28:05;11.83;;;7.97;;
5475;SDS011;2760;50.000;9.194;2023-03-20T14:30:47;13.47;;;6.80;;
5475;SDS011;2760;50.000;9.194;2023-03-20T14:33:25;9.67;;;6.10;;
5475;SDS011;2760;50.000;9.194;2023-03-20T14:38:48;15.60;;;7.10;;
5475;SDS011;2760;50.000;9.194;2023-03-20T14:41:25;10.40;;;5.97;;
5475;SDS011;2760;50.000;9.194;2023-03-20T14:44:01;13.47;;;6.50;;
5475;SDS011;2760;50.000;9.194;2023-03-20T14:46:42;15.10;;;6.60;;
5475;SDS011;2760;50.000;9.194;2023-03-20T14:49:24;10.37;;;7.37;;
5475;SDS011;2760;50.000;9.194;2023-03-20T14:52:14;7.27;;;6.07;;
5475;SDS011;2760;50.000;9.194;2023-03-20T14:55:12;11.00;;;7.10;;
5475;SDS011;2760;50.000;9.194;2023-03-20T14:57:53;13.43;;;7.50;;
5475;SDS011;2760;50.000;9.194;2023-03-20T15:00:20;9.60;;;6.40;;
5475;SDS011;2760;50.000;9.194;2023-03-20T15:02:50;22.40;;;7.70;;
5475;SDS011;2760;50.000;9.194;2023-03-20T15:05:22;29.50;;;6.83;;
5475;SDS011;2760;50.000;9.194;2023-03-20T15:07:54;16.63;;;6.60;;
5475;SDS011;2760;50.000;9.194;2023-03-20T15:10:23;10.83;;;7.27;;
5475;SDS011;2760;50.000;9.194;2023-03-20T15:12:51;10.80;;;6.37;;
5475;SDS011;2760;50.000;9.194;2023-03-20T15:15:23;17.47;;;6.33;;
5475;SDS011;2760;50.000;9.194;2023-03-20T15:17:52;17.00;;;6.30;;
5475;SDS011;2760;50.000;9.194;2023-03-20T15:20:20;11.70;;;5.77;;
5475;SDS011;2760;50.000;9.194;2023-03-20T15:22:49;8.67;;;5.70;;
5475;SDS011;2760;50.000;9.194;2023-03-20T15:25:20;7.80;;;5.07;;
5475;SDS011;2760;50.000;9.194;2023-03-20T15:27:50;11.30;;;5.20;;
5475;SDS011;2760;50.000;9.194;2023-03-20T15:30:19;12.50;;;5.93;;
5475;SDS011;2760;50.000;9.194;2023-03-20T15:32:47;9.00;;;5.37;;
5475;SDS011;2760;50.000;9.194;2023-03-20T15:35:18;8.90;;;5.07;;
5475;SDS011;2760;50.000;9.194;2023-03-20T15:37:48;16.73;;;5.30;;
5475;SDS011;2760;50.000;9.194;2023-03-20T15:40:22;8.33;;;4.67;;
5475;SDS011;2760;50.000;9.194;2023-03-20T15:42:55;13.80;;;6.23;;
5475;SDS011;2760;50.000;9.194;2023-03-20T15:45:24;9.30;;;4.73;;
5475;SDS011;2760;50.000;9.194;2023-03-20T15:47:59;9.63;;;5.10;;